Time;durP1;ratioP1;P1;durP2;ratioP2;P2;SDS_P1;SDS_P2;PMS_P1;PMS_P2;Temp;Humidity;BMP_temperature;BMP_pressure;BME280_temperature;BME280_humidity;BME280_pressure;Samples;Min_cycle;Max_cycle;Signal;HPM_P1;HPM_P2
2023/10/12 00:00:37;;;;;;;7.47;3.75;;;;;;;;;;5091254;28;20028;-67
2023/10/12 00:03:05;;;;;;;6.85;3.38;;;;;;;;;;5090602;28;20084;-67
2023/10/12 00:05:32;;;;;;;6.68;3.10;;;;;;;;;;5089816;28;20482;-67
2023/10/12 00:07:57;;;;;;;7.40;3.47;;;;;;;;;;5078651;28;20108;-67
2023/10/12 00:10:23;;;;;;;9.20;4.20;;;;;;;;;;5090770;28;20111;-67
2023/10/12 00:12:50;;;;;;;7.97;3.30;;;;;;;;;;5090484;28;20059;-67
2023/10/12 00:17:52;;;;;;;9.40;4.00;;;;;;;;;;5089564;28;20036;-67
2023/10/12 00:20:38;;;;;;;6.47;3.50;;;;;;;;;;5090306;28;20016;-67
2023/10/12 00:23:09;;;;;;;6.15;3.58;;;;;;;;;;5086100;28;20115;-67
2023/10/12 00:25:41;;;;;;;11.43;3.72;;;;;;;;;;5081662;28;20028;-67
2023/10/12 00:28:07;;;;;;;6.85;3.75;;;;;;;;;;5068640;28;20168;-67
2023/10/12 00:30:32;;;;;;;7.82;3.50;;;;;;;;;;5090891;28;20020;-67
2023/10/12 00:32:58;;;;;;;10.67;3.70;;;;;;;;;;5089909;28;20024;-67
2023/10/12 00:35:23;;;;;;;6.80;3.90;;;;;;;;;;5094274;28;20356;-67
2023/10/12 00:37:48;;;;;;;12.27;4.60;;;;;;;;;;5093280;28;20277;-67
2023/10/12 00:40:30;;;;;;;6.50;3.70;;;;;;;;;;5093579;28;20038;-67
2023/10/12 00:42:59;;;;;;;7.28;3.53;;;;;;;;;;5093116;28;20535;-67
2023/10/12 00:45:32;;;;;;;9.65;4.05;;;;;;;;;;5087470;28;20024;-67
2023/10/12 00:48:15;;;;;;;8.02;3.67;;;;;;;;;;5086522;28;20065;-67
2023/10/12 00:50:43;;;;;;;8.57;3.75;;;;;;;;;;5080262;28;20081;-67
2023/10/12 00:53:21;;;;;;;10.60;4.15;;;;;;;;;;5082000;28;20049;-68
2023/10/12 00:55:47;;;;;;;6.97;3.55;;;;;;;;;;5083784;28;20563;-67
2023/10/12 00:58:14;;;;;;;8.50;4.07;;;;;;;;;;5092958;28;20051;-67
2023/10/12 01:00:51;;;;;;;7.05;4.10;;;;;;;;;;5088721;28;20032;-67
2023/10/12 01:03:35;;;;;;;9.82;3.95;;;;;;;;;;5092980;28;20103;-67
2023/10/12 01:08:33;;;;;;;6.45;3.83;;;;;;;;;;5081941;28;20047;-67
2023/10/12 01:11:04;;;;;;;9.05;3.85;;;;;;;;;;5093031;28;20028;-67
2023/10/12 01:13:33;;;;;;;7.10;4.30;;;;;;;;;;5093094;28;20032;-67
2023/10/12 01:15:58;;;;;;;7.30;4.05;;;;;;;;;;5092674;28;20024;-67
2023/10/12 01:18:28;;;;;;;6.60;3.78;;;;;;;;;;5092413;28;20035;-67
2023/10/12 01:20:53;;;;;;;8.32;3.83;;;;;;;;;;5081587;28;20016;-67
2023/10/12 01:23:18;;;;;;;6.38;3.67;;;;;;;;;;5093207;28;20038;-67
2023/10/12 01:25:47;;;;;;;6.88;3.80;;;;;;;;;;5083497;28;20032;-67
2023/10/12 01:28:12;;;;;;;9.93;3.78;;;;;;;;;;5092948;28;20416;-67
2023/10/12 01:30:39;;;;;;;11.53;4.40;;;;;;;;;;5092857;28;20077;-68
2023/10/12 01:33:04;;;;;;;7.22;4.05;;;;;;;;;;5093013;28;20347;-68
2023/10/12 01:35:34;;;;;;;7.53;4.20;;;;;;;;;;5092590;28;20024;-68
2023/10/12 01:38:04;;;;;;;7.30;3.97;;;;;;;;;;5092004;28;20505;-69
2023/10/12 01:40:52;;;;;;;10.55;4.22;;;;;;;;;;5092971;28;20020;-69
2023/10/12 01:43:18;;;;;;;8.38;4.30;;;;;;;;;;5090682;28;20024;-69
2023/10/12 01:45:44;;;;;;;6.65;4.38;;;;;;;;;;5092224;28;20145;-69
2023/10/12 01:48:22;;;;;;;12.32;4.65;;;;;;;;;;5092659;28;20031;-69
2023/10/12 01:50:47;;;;;;;9.90;4.82;;;;;;;;;;5092686;28;20487;-69
2023/10/12 01:55:45;;;;;;;9.45;5.75;;;;;;;;;;5092834;28;20043;-68
2023/10/12 01:58:12;;;;;;;9.93;6.15;;;;;;;;;;5090225;28;20028;-68
2023/10/12 02:00:51;;;;;;;12.00;5.25;;;;;;;;;;5081750;28;20035;-68
2023/10/12 02:03:32;;;;;;;11.32;6.15;;;;;;;;;;5092133;28;20032;-68
2023/10/12 02:06:05;;;;;;;9.27;6.10;;;;;;;;;;5092284;28;20039;-68
2023/10/12 02:08:59;;;;;;;8.02;5.30;;;;;;;;;;5079114;28;20020;-67
2023/10/12 02:13:50;;;;;;;11.05;6.55;;;;;;;;;;5083516;28;20055;-68
2023/10/12 02:16:30;;;;;;;9.77;6.90;;;;;;;;;;5091466;28;20036;-68
2023/10/12 02:18:55;;;;;;;9.50;6.80;;;;;;;;;;5092367;28;20112;-68
2023/10/12 02:21:21;;;;;;;12.00;7.07;;;;;;;;;;5092171;28;20062;-68
2023/10/12 02:23:54;;;;;;;14.15;7.32;;;;;;;;;;5092346;28;20309;-68
2023/10/12 02:29:11;;;;;;;9.27;7.00;;;;;;;;;;5091599;28;20451;-68
2023/10/12 02:31:58;;;;;;;13.38;8.50;;;;;;;;;;5092607;28;20059;-68
2023/10/12 02:34:29;;;;;;;14.25;7.47;;;;;;;;;;5091511;28;20024;-68
2023/10/12 02:39:43;;;;;;;12.60;7.85;;;;;;;;;;5091858;28;20062;-68
2023/10/12 02:44:35;;;;;;;11.38;7.78;;;;;;;;;;5092315;28;20028;-70
2023/10/12 02:47:12;;;;;;;9.52;7.78;;;;;;;;;;5091326;28;20076;-69
2023/10/12 02:49:39;;;;;;;12.18;7.75;;;;;;;;;;5091882;28;20097;-69
2023/10/12 02:52:08;;;;;;;15.30;7.88;;;;;;;;;;5092064;28;20039;-69
2023/10/12 02:54:38;;;;;;;14.60;8.95;;;;;;;;;;5090969;28;20031;-69
2023/10/12 02:57:05;;;;;;;14.55;8.57;;;;;;;;;;5091995;28;20170;-68
2023/10/12 02:59:36;;;;;;;15.35;9.13;;;;;;;;;;5080447;28;20029;-68
2023/10/12 03:02:14;;;;;;;12.07;8.32;;;;;;;;;;5090523;28;20402;-68
2023/10/12 03:04:40;;;;;;;13.48;9.98;;;;;;;;;;5091208;28;20024;-69
2023/10/12 03:07:11;;;;;;;15.32;9.20;;;;;;;;;;5090216;28;20029;-69
2023/10/12 03:09:37;;;;;;;13.77;9.80;;;;;;;;;;5091679;28;20119;-69
2023/10/12 03:12:03;;;;;;;13.30;8.80;;;;;;;;;;5091463;28;20130;-70
2023/10/12 03:14:28;;;;;;;13.70;9.15;;;;;;;;;;5091390;28;20031;-70
2023/10/12 03:16:53;;;;;;;16.60;10.00;;;;;;;;;;5090759;28;20483;-70
2023/10/12 03:19:25;;;;;;;14.43;8.98;;;;;;;;;;5091026;28;20633;-70
2023/10/12 03:21:51;;;;;;;12.63;8.85;;;;;;;;;;5078815;28;20098;-70
2023/10/12 03:24:17;;;;;;;15.63;8.82;;;;;;;;;;5091132;28;20474;-70
2023/10/12 03:26:49;;;;;;;12.60;10.20;;;;;;;;;;5091567;28;20028;-70
2023/10/12 03:34:30;;;;;;;13.80;10.38;;;;;;;;;;5090004;28;20442;-70
2023/10/12 03:36:58;;;;;;;14.88;10.02;;;;;;;;;;5091685;28;20028;-70
2023/10/12 03:45:08;;;;;;;17.08;10.73;;;;;;;;;;5090592;28;20032;-69
2023/10/12 03:47:05;;;;;;;14.30;10.57;;;;;;;;;;5068427;28;20044;-69
2023/10/12 03:49:43;;;;;;;20.15;10.60;;;;;;;;;;5090523;28;20039;-70
2023/10/12 03:52:15;;;;;;;20.55;11.82;;;;;;;;;;5078943;28;20120;-70
2023/10/12 03:54:55;;;;;;;14.90;10.07;;;;;;;;;;5090573;28;20420;-70
2023/10/12 03:57:27;;;;;;;19.27;11.38;;;;;;;;;;5091401;28;20121;-70
2023/10/12 04:02:30;;;;;;;17.48;10.73;;;;;;;;;;5083757;28;20040;-70
2023/10/12 04:07:59;;;;;;;17.23;11.55;;;;;;;;;;5093424;28;20085;-70
2023/10/12 04:13:54;;;;;;;16.20;11.27;;;;;;;;;;5094553;28;20046;-68
2023/10/12 04:16:10;;;;;;;17.85;12.05;;;;;;;;;;5093378;28;20040;-69
2023/10/12 04:19:03;;;;;;;15.55;11.07;;;;;;;;;;5094730;28;20032;-68
2023/10/12 04:21:33;;;;;;;19.42;11.77;;;;;;;;;;5093940;28;20024;-68
2023/10/12 04:28:58;;;;;;;16.77;10.03;;;;;;;;;;5094168;28;20027;-68
2023/10/12 04:34:08;;;;;;;15.50;10.23;;;;;;;;;;5091860;28;20354;-68
2023/10/12 04:41:42;;;;;;;17.40;11.48;;;;;;;;;;5093567;28;20034;-68
2023/10/12 04:47:10;;;;;;;15.50;10.98;;;;;;;;;;5092195;28;20058;-67
2023/10/12 04:54:49;;;;;;;16.85;9.88;;;;;;;;;;5093631;28;20028;-67
2023/10/12 04:57:15;;;;;;;16.00;11.13;;;;;;;;;;5089550;28;20035;-67
2023/10/12 04:59:50;;;;;;;17.80;10.95;;;;;;;;;;5089752;28;20386;-67
2023/10/12 05:02:22;;;;;;;17.25;11.15;;;;;;;;;;5092488;28;20506;-67
2023/10/12 05:09:48;;;;;;;16.27;11.73;;;;;;;;;;5092678;28;20674;-67
2023/10/12 05:12:14;;;;;;;19.70;11.52;;;;;;;;;;5093488;28;20095;-67
2023/10/12 05:14:39;;;;;;;17.83;11.60;;;;;;;;;;5092711;28;20484;-67
2023/10/12 05:17:07;;;;;;;16.13;11.70;;;;;;;;;;5091602;28;20274;-67
2023/10/12 05:19:33;;;;;;;16.00;11.38;;;;;;;;;;5092774;28;20360;-67
2023/10/12 05:21:58;;;;;;;16.73;11.82;;;;;;;;;;5092998;28;20539;-67
2023/10/12 05:24:24;;;;;;;14.38;10.90;;;;;;;;;;5092415;28;20030;-67
2023/10/12 05:26:52;;;;;;;15.93;10.07;;;;;;;;;;5092893;28;20050;-67
2023/10/12 05:29:34;;;;;;;15.00;11.32;;;;;;;;;;5092122;28;20635;-67
2023/10/12 05:32:05;;;;;;;14.32;10.82;;;;;;;;;;5093338;28;20125;-67
2023/10/12 05:37:26;;;;;;;15.98;11.00;;;;;;;;;;5092462;28;20120;-67
2023/10/12 05:39:52;;;;;;;15.82;11.77;;;;;;;;;;5093191;28;20028;-67
2023/10/12 05:42:19;;;;;;;21.95;12.13;;;;;;;;;;5092414;28;20389;-67
2023/10/12 05:44:45;;;;;;;18.33;11.07;;;;;;;;;;5092745;28;20479;-67
2023/10/12 05:47:13;;;;;;;15.75;11.40;;;;;;;;;;5091651;28;20028;-68
2023/10/12 05:49:40;;;;;;;13.95;10.20;;;;;;;;;;5091969;28;20034;-67
2023/10/12 05:52:07;;;;;;;17.38;11.60;;;;;;;;;;5090246;28;20024;-68
2023/10/12 05:54:32;;;;;;;13.98;11.27;;;;;;;;;;5092734;28;20367;-68
2023/10/12 05:57:03;;;;;;;18.20;11.38;;;;;;;;;;5091932;28;20081;-67
2023/10/12 05:59:29;;;;;;;15.57;11.07;;;;;;;;;;5080425;28;20025;-67
2023/10/12 06:01:54;;;;;;;14.45;11.73;;;;;;;;;;5092106;28;20034;-67
2023/10/12 06:04:19;;;;;;;19.23;12.07;;;;;;;;;;5073388;28;20032;-68
2023/10/12 06:06:46;;;;;;;15.38;11.35;;;;;;;;;;5045729;28;20409;-67
2023/10/12 06:09:12;;;;;;;16.23;11.55;;;;;;;;;;5042471;28;20025;-67
2023/10/12 06:11:44;;;;;;;18.38;11.65;;;;;;;;;;5035583;28;20032;-67
2023/10/12 06:14:10;;;;;;;16.00;11.50;;;;;;;;;;5042291;28;20042;-68
2023/10/12 06:16:39;;;;;;;20.10;11.45;;;;;;;;;;5050628;28;20036;-67
2023/10/12 06:19:05;;;;;;;17.25;11.07;;;;;;;;;;5047660;28;20023;-67
2023/10/12 06:21:32;;;;;;;19.77;11.23;;;;;;;;;;5051666;28;20234;-68
2023/10/12 06:23:59;;;;;;;13.32;11.50;;;;;;;;;;5038355;28;20101;-67
2023/10/12 06:26:30;;;;;;;18.15;11.05;;;;;;;;;;5073256;28;20089;-67
2023/10/12 06:28:59;;;;;;;13.70;11.15;;;;;;;;;;5090447;28;20028;-67
2023/10/12 06:31:31;;;;;;;15.65;11.65;;;;;;;;;;5073313;28;20124;-67
2023/10/12 06:33:59;;;;;;;18.52;11.93;;;;;;;;;;5046639;28;20450;-67
2023/10/12 06:36:37;;;;;;;18.40;12.10;;;;;;;;;;5035285;28;20024;-67
2023/10/12 06:44:28;;;;;;;19.33;11.90;;;;;;;;;;5040030;28;20077;-67
2023/10/12 06:46:54;;;;;;;16.92;10.77;;;;;;;;;;5039329;28;20054;-67
2023/10/12 06:49:23;;;;;;;15.43;12.18;;;;;;;;;;5042433;28;20031;-67
2023/10/12 06:52:01;;;;;;;15.80;11.57;;;;;;;;;;5070640;28;20102;-66
2023/10/12 06:54:39;;;;;;;18.02;11.70;;;;;;;;;;5091000;28;20149;-66
2023/10/12 07:02:29;;;;;;;19.63;11.68;;;;;;;;;;5050155;28;20112;-66
2023/10/12 07:04:58;;;;;;;16.27;11.45;;;;;;;;;;5069626;28;20023;-67
2023/10/12 07:07:27;;;;;;;19.75;11.95;;;;;;;;;;5032869;28;20060;-67
2023/10/12 07:12:48;;;;;;;14.45;10.68;;;;;;;;;;5063901;28;20039;-67
2023/10/12 07:15:19;;;;;;;15.70;10.90;;;;;;;;;;5090523;28;20039;-67
2023/10/12 07:17:51;;;;;;;18.23;11.38;;;;;;;;;;5090795;28;20139;-67
2023/10/12 07:20:42;;;;;;;16.42;10.77;;;;;;;;;;5079857;28;20020;-66
2023/10/12 07:23:28;;;;;;;14.23;9.90;;;;;;;;;;5089782;28;20020;-66
2023/10/12 07:25:59;;;;;;;17.30;10.10;;;;;;;;;;5085822;28;20040;-67
2023/10/12 07:28:33;;;;;;;17.02;10.52;;;;;;;;;;5080433;28;20024;-67
2023/10/12 07:33:32;;;;;;;15.10;9.02;;;;;;;;;;5089543;28;19912;-66
2023/10/12 07:36:17;;;;;;;11.73;9.77;;;;;;;;;;5082236;28;20024;-66
2023/10/12 07:38:44;;;;;;;16.65;9.32;;;;;;;;;;5038271;28;20123;-67
2023/10/12 07:41:10;;;;;;;15.57;10.13;;;;;;;;;;5050548;28;20024;-67
2023/10/12 07:43:38;;;;;;;14.45;9.32;;;;;;;;;;5042065;28;20131;-67
2023/10/12 07:46:12;;;;;;;17.85;9.93;;;;;;;;;;5048476;28;20028;-67
2023/10/12 07:48:44;;;;;;;13.32;9.23;;;;;;;;;;5065530;28;20024;-67
2023/10/12 07:51:17;;;;;;;16.25;10.15;;;;;;;;;;5094324;28;20471;-68
2023/10/12 07:53:44;;;;;;;15.27;9.73;;;;;;;;;;5094353;28;20052;-67
2023/10/12 07:56:15;;;;;;;17.17;9.57;;;;;;;;;;5093810;28;20028;-68
2023/10/12 07:58:41;;;;;;;14.70;9.65;;;;;;;;;;5049566;28;20135;-68
2023/10/12 08:03:58;;;;;;;17.63;9.93;;;;;;;;;;5046508;28;20094;-68
2023/10/12 08:11:44;;;;;;;18.88;10.35;;;;;;;;;;5078433;28;20031;-68
2023/10/12 08:17:25;;;;;;;20.05;11.18;;;;;;;;;;5089163;28;20296;-68
2023/10/12 08:19:39;;;;;;;19.45;10.07;;;;;;;;;;5093191;28;20490;-68
2023/10/12 08:22:09;;;;;;;17.63;10.48;;;;;;;;;;5080411;28;20093;-66
2023/10/12 08:24:36;;;;;;;15.02;10.35;;;;;;;;;;5093150;28;20019;-66
2023/10/12 08:27:05;;;;;;;17.20;9.38;;;;;;;;;;5093245;28;20455;-66
2023/10/12 08:39:50;;;;;;;12.32;9.43;;;;;;;;;;5053481;28;20833;-68
2023/10/12 08:44:54;;;;;;;14.52;8.77;;;;;;;;;;5049803;28;20036;-67
2023/10/12 08:47:26;;;;;;;13.48;8.77;;;;;;;;;;5048180;28;20088;-68
2023/10/12 08:52:29;;;;;;;;;;;;;;;;;;5042456;28;20937;-68
2023/10/12 08:54:58;;;;;;;13.32;9.05;;;;;;;;;;5043123;28;19919;-68
2023/10/12 08:57:38;;;;;;;13.05;8.20;;;;;;;;;;5048083;28;20131;-68
2023/10/12 09:02:53;;;;;;;10.10;7.88;;;;;;;;;;5040252;28;20465;-68
2023/10/12 09:05:30;;;;;;;11.95;7.68;;;;;;;;;;5046263;28;20055;-68
2023/10/12 09:10:48;;;;;;;12.20;6.88;;;;;;;;;;5080368;28;20042;-68
2023/10/12 09:13:17;;;;;;;9.98;6.82;;;;;;;;;;5072850;28;20486;-68
2023/10/12 09:15:45;;;;;;;12.60;8.07;;;;;;;;;;5081298;28;20020;-68
2023/10/12 09:18:11;;;;;;;12.05;7.13;;;;;;;;;;5085650;28;20028;-67
2023/10/12 09:20:40;;;;;;;10.20;6.70;;;;;;;;;;5085158;28;20023;-68
2023/10/12 09:23:13;;;;;;;9.90;6.50;;;;;;;;;;5086912;28;20048;-67
2023/10/12 09:28:25;;;;;;;13.47;6.60;;;;;;;;;;5091178;28;20089;-68
2023/10/12 09:30:51;;;;;;;10.25;6.53;;;;;;;;;;5086252;28;20060;-68
2023/10/12 09:33:44;;;;;;;8.30;5.75;;;;;;;;;;5059023;28;20120;-67
2023/10/12 09:36:02;;;;;;;12.70;6.55;;;;;;;;;;5078042;28;20044;-68
2023/10/12 09:38:31;;;;;;;13.95;6.72;;;;;;;;;;5092719;28;20084;-68
2023/10/12 09:40:59;;;;;;;10.82;6.18;;;;;;;;;;5092661;28;20034;-68
2023/10/12 09:43:30;;;;;;;12.50;6.43;;;;;;;;;;5092727;28;20039;-67
2023/10/12 09:45:58;;;;;;;10.05;5.78;;;;;;;;;;5092786;28;20481;-68
2023/10/12 09:48:29;;;;;;;13.95;6.85;;;;;;;;;;5091792;28;20020;-67
2023/10/12 09:50:55;;;;;;;10.52;6.22;;;;;;;;;;5090518;28;20459;-68
2023/10/12 09:53:26;;;;;;;12.80;6.72;;;;;;;;;;5091848;28;20070;-68
2023/10/12 09:56:11;;;;;;;11.07;6.07;;;;;;;;;;5091544;28;20058;-68
2023/10/12 09:58:43;;;;;;;12.43;6.25;;;;;;;;;;5086424;28;20147;-68
2023/10/12 10:01:15;;;;;;;10.52;6.15;;;;;;;;;;5089835;28;20578;-68
2023/10/12 10:03:47;;;;;;;13.70;6.50;;;;;;;;;;5088973;28;20047;-69
2023/10/12 10:06:28;;;;;;;12.13;5.75;;;;;;;;;;5090814;28;20028;-68
2023/10/12 10:11:40;;;;;;;10.38;5.70;;;;;;;;;;5090807;28;20514;-68
2023/10/12 10:14:09;;;;;;;11.05;6.10;;;;;;;;;;5091509;28;20107;-68
2023/10/12 10:16:47;;;;;;;8.63;5.38;;;;;;;;;;5088886;28;20459;-68
2023/10/12 10:19:16;;;;;;;9.40;5.28;;;;;;;;;;5090765;28;20028;-67
2023/10/12 10:21:52;;;;;;;11.70;5.38;;;;;;;;;;5082645;28;20035;-67
2023/10/12 10:24:25;;;;;;;14.45;6.25;;;;;;;;;;5091043;28;20067;-67
2023/10/12 10:26:58;;;;;;;12.65;6.15;;;;;;;;;;5083386;28;20040;-67
2023/10/12 10:29:38;;;;;;;10.15;6.15;;;;;;;;;;5091257;28;20436;-67
2023/10/12 10:32:03;;;;;;;14.43;6.07;;;;;;;;;;5091428;28;20115;-67
2023/10/12 10:34:34;;;;;;;12.90;6.07;;;;;;;;;;5091378;28;20146;-67
2023/10/12 10:36:59;;;;;;;12.32;5.78;;;;;;;;;;5091744;28;20281;-67
2023/10/12 10:39:30;;;;;;;12.47;6.10;;;;;;;;;;5086691;28;20031;-67
2023/10/12 10:42:00;;;;;;;13.85;5.63;;;;;;;;;;5087015;28;20291;-67
2023/10/12 10:44:29;;;;;;;11.60;6.07;;;;;;;;;;5084455;28;20081;-67
2023/10/12 10:47:00;;;;;;;13.70;6.40;;;;;;;;;;5086069;28;20051;-67
2023/10/12 10:49:31;;;;;;;13.73;6.50;;;;;;;;;;5091626;28;20020;-68
2023/10/12 10:52:13;;;;;;;13.05;6.72;;;;;;;;;;5091082;28;20470;-68
2023/10/12 10:54:40;;;;;;;10.25;5.72;;;;;;;;;;5063473;28;20116;-68
2023/10/12 10:57:15;;;;;;;11.73;6.20;;;;;;;;;;5087746;28;20021;-68
2023/10/12 10:59:42;;;;;;;12.20;5.75;;;;;;;;;;5085368;28;20178;-67
2023/10/12 11:02:11;;;;;;;11.93;6.10;;;;;;;;;;5080310;28;20115;-67
2023/10/12 11:04:42;;;;;;;12.10;6.28;;;;;;;;;;5083291;28;20016;-67
2023/10/12 11:07:14;;;;;;;11.50;5.72;;;;;;;;;;5087826;28;20071;-66
2023/10/12 11:10:31;;;;;;;12.10;5.80;;;;;;;;;;5090849;28;20031;-67
2023/10/12 11:12:38;;;;;;;12.48;6.32;;;;;;;;;;5080560;28;20028;-68
2023/10/12 11:15:11;;;;;;;8.75;5.55;;;;;;;;;;5079916;28;20031;-68
2023/10/12 11:17:55;;;;;;;14.80;6.15;;;;;;;;;;5079559;28;20034;-67
2023/10/12 11:20:27;;;;;;;13.82;6.50;;;;;;;;;;5088965;28;20031;-68
2023/10/12 11:22:53;;;;;;;10.43;5.50;;;;;;;;;;5090036;28;20529;-68
2023/10/12 11:25:20;;;;;;;10.32;5.35;;;;;;;;;;5089742;28;20432;-68
2023/10/12 11:27:45;;;;;;;8.40;5.20;;;;;;;;;;5088888;28;20055;-67
2023/10/12 11:30:21;;;;;;;11.82;6.72;;;;;;;;;;5087170;28;20145;-68
2023/10/12 11:32:52;;;;;;;12.15;5.95;;;;;;;;;;5089347;28;20020;-68
2023/10/12 11:35:17;;;;;;;9.80;6.32;;;;;;;;;;5087885;28;20056;-68
2023/10/12 11:37:42;;;;;;;9.90;6.50;;;;;;;;;;5091169;28;20058;-69
2023/10/12 11:40:09;;;;;;;12.73;6.33;;;;;;;;;;5088506;28;20031;-68
2023/10/12 11:42:51;;;;;;;12.10;6.30;;;;;;;;;;5089441;28;20321;-68
2023/10/12 11:45:16;;;;;;;13.25;6.93;;;;;;;;;;5087752;28;20114;-68
2023/10/12 11:47:43;;;;;;;14.77;7.43;;;;;;;;;;5083042;28;20434;-68
2023/10/12 11:50:09;;;;;;;10.15;7.93;;;;;;;;;;5088856;28;20111;-68
2023/10/12 11:52:37;;;;;;;13.40;6.97;;;;;;;;;;5088873;28;20045;-68
2023/10/12 11:55:06;;;;;;;11.23;7.82;;;;;;;;;;5089340;28;20024;-68
2023/10/12 11:57:32;;;;;;;12.02;7.15;;;;;;;;;;5087788;28;20069;-68
2023/10/12 11:59:58;;;;;;;8.80;6.53;;;;;;;;;;5086184;28;20451;-68
2023/10/12 12:02:24;;;;;;;15.63;6.85;;;;;;;;;;5088610;28;20028;-68
2023/10/12 12:04:50;;;;;;;12.93;6.80;;;;;;;;;;5085578;28;20031;-68
2023/10/12 12:07:15;;;;;;;11.93;6.45;;;;;;;;;;5089215;28;20046;-68
2023/10/12 12:09:41;;;;;;;9.93;6.20;;;;;;;;;;5089233;28;20479;-68
2023/10/12 12:12:12;;;;;;;13.73;7.13;;;;;;;;;;5090339;28;20370;-68
2023/10/12 12:14:38;;;;;;;12.63;6.90;;;;;;;;;;5084149;28;20024;-68
2023/10/12 12:17:04;;;;;;;11.15;6.20;;;;;;;;;;5088021;28;20047;-68
2023/10/12 12:19:33;;;;;;;13.43;5.70;;;;;;;;;;5085186;28;20024;-69
2023/10/12 12:22:02;;;;;;;10.27;6.40;;;;;;;;;;5090063;28;20027;-68
2023/10/12 12:24:29;;;;;;;10.35;6.28;;;;;;;;;;5076730;28;20058;-67
2023/10/12 12:26:59;;;;;;;11.38;6.10;;;;;;;;;;5091583;28;20072;-68
2023/10/12 12:29:26;;;;;;;10.88;6.40;;;;;;;;;;5092649;28;20036;-67
2023/10/12 12:31:51;;;;;;;9.48;5.97;;;;;;;;;;5086412;28;20032;-67
2023/10/12 12:34:38;;;;;;;10.18;6.05;;;;;;;;;;5086757;28;20506;-67
2023/10/12 12:37:06;;;;;;;9.48;5.53;;;;;;;;;;5091996;28;20028;-68
2023/10/12 12:39:36;;;;;;;8.90;5.30;;;;;;;;;;5091564;28;20038;-67
2023/10/12 12:42:02;;;;;;;7.80;4.80;;;;;;;;;;5085457;28;20131;-68
2023/10/12 12:44:31;;;;;;;8.73;4.35;;;;;;;;;;5090839;28;20495;-67
2023/10/12 12:46:59;;;;;;;9.52;4.50;;;;;;;;;;5090772;28;20134;-67
2023/10/12 12:49:25;;;;;;;7.65;4.75;;;;;;;;;;5092707;28;20089;-67
2023/10/12 12:51:50;;;;;;;8.57;4.93;;;;;;;;;;5090563;28;20028;-67
2023/10/12 12:54:18;;;;;;;10.63;5.72;;;;;;;;;;5091340;28;20039;-67
2023/10/12 12:56:44;;;;;;;10.73;5.63;;;;;;;;;;5087371;28;20032;-67
2023/10/12 12:59:13;;;;;;;9.57;5.20;;;;;;;;;;5073022;28;20162;-67
2023/10/12 13:01:47;;;;;;;9.23;4.78;;;;;;;;;;5087251;28;20034;-67
2023/10/12 13:04:16;;;;;;;8.90;5.03;;;;;;;;;;5089002;28;20020;-67
2023/10/12 13:06:42;;;;;;;10.38;4.70;;;;;;;;;;5091489;28;20028;-69
2023/10/12 13:09:26;;;;;;;9.57;4.87;;;;;;;;;;5092427;28;20517;-67
2023/10/12 13:11:51;;;;;;;10.13;5.30;;;;;;;;;;5092193;28;20274;-67
2023/10/12 13:14:19;;;;;;;11.48;5.70;;;;;;;;;;5087655;28;20017;-66
2023/10/12 13:16:44;;;;;;;12.65;5.55;;;;;;;;;;5088352;28;20064;-65
2023/10/12 13:19:11;;;;;;;7.90;4.75;;;;;;;;;;5086586;28;20016;-64
2023/10/12 13:21:41;;;;;;;10.70;5.25;;;;;;;;;;5091239;28;20027;-65
2023/10/12 13:24:07;;;;;;;9.07;4.82;;;;;;;;;;5092424;28;20128;-67
2023/10/12 13:26:32;;;;;;;9.68;5.00;;;;;;;;;;5092246;28;20103;-66
2023/10/12 13:29:01;;;;;;;14.93;5.53;;;;;;;;;;5092814;28;20137;-66
2023/10/12 13:31:28;;;;;;;9.20;5.30;;;;;;;;;;5092915;28;20319;-67
2023/10/12 13:33:53;;;;;;;10.20;5.35;;;;;;;;;;5091488;28;20024;-68
2023/10/12 13:36:20;;;;;;;9.10;5.47;;;;;;;;;;5091967;28;20034;-66
2023/10/12 13:38:46;;;;;;;11.52;5.35;;;;;;;;;;5090823;28;20047;-67
2023/10/12 13:41:11;;;;;;;9.95;5.75;;;;;;;;;;5092258;28;20470;-66
2023/10/12 13:43:37;;;;;;;11.57;5.97;;;;;;;;;;5092304;28;20026;-66
2023/10/12 13:46:07;;;;;;;8.93;5.45;;;;;;;;;;5091885;28;20741;-67
2023/10/12 13:48:37;;;;;;;9.63;4.78;;;;;;;;;;5080628;28;20055;-67
2023/10/12 13:51:08;;;;;;;11.88;6.07;;;;;;;;;;5091363;28;20028;-64
2023/10/12 13:53:36;;;;;;;9.63;5.55;;;;;;;;;;5042150;28;20134;-65
2023/10/12 13:56:04;;;;;;;10.45;5.40;;;;;;;;;;5049330;28;20025;-65
2023/10/12 13:58:32;;;;;;;14.02;6.00;;;;;;;;;;5047507;28;20047;-65
2023/10/12 14:01:02;;;;;;;12.70;5.78;;;;;;;;;;5089363;28;20047;-67
2023/10/12 14:03:28;;;;;;;11.73;6.05;;;;;;;;;;5089310;28;20359;-68
2023/10/12 14:05:54;;;;;;;9.02;5.55;;;;;;;;;;5090796;28;20467;-66
2023/10/12 14:08:19;;;;;;;12.70;5.82;;;;;;;;;;5085671;28;20028;-67
2023/10/12 14:10:45;;;;;;;11.85;6.30;;;;;;;;;;5061464;28;20035;-65
2023/10/12 14:13:13;;;;;;;8.57;5.63;;;;;;;;;;5047087;28;20048;-65
2023/10/12 14:15:39;;;;;;;12.80;5.97;;;;;;;;;;5036158;28;21060;-65
2023/10/12 14:18:04;;;;;;;11.40;6.50;;;;;;;;;;5064246;28;20036;-65
2023/10/12 14:20:32;;;;;;;10.55;6.65;;;;;;;;;;5080085;28;20025;-67
2023/10/12 14:22:57;;;;;;;12.90;7.05;;;;;;;;;;5091270;28;20093;-68
2023/10/12 14:25:30;;;;;;;13.73;7.18;;;;;;;;;;5090651;28;20470;-67
2023/10/12 14:27:57;;;;;;;12.63;6.75;;;;;;;;;;5090632;28;20542;-68
2023/10/12 14:30:28;;;;;;;11.70;6.80;;;;;;;;;;5090091;28;20030;-68
2023/10/12 14:32:54;;;;;;;12.13;7.63;;;;;;;;;;5089873;28;20023;-68
2023/10/12 14:35:20;;;;;;;11.60;7.40;;;;;;;;;;5090141;28;20030;-68
2023/10/12 14:37:45;;;;;;;14.57;7.50;;;;;;;;;;5090345;28;20039;-68
2023/10/12 14:40:11;;;;;;;11.33;7.90;;;;;;;;;;5090888;28;20020;-68
2023/10/12 14:42:42;;;;;;;12.57;6.75;;;;;;;;;;5090828;28;20317;-68
2023/10/12 14:45:08;;;;;;;13.10;7.10;;;;;;;;;;5090515;28;20081;-67
2023/10/12 14:47:35;;;;;;;11.60;7.20;;;;;;;;;;5090613;28;20036;-68
2023/10/12 14:50:03;;;;;;;12.20;7.82;;;;;;;;;;5080231;28;20020;-66
2023/10/12 14:52:38;;;;;;;11.95;7.57;;;;;;;;;;5046274;28;20016;-66
2023/10/12 14:55:04;;;;;;;11.63;7.20;;;;;;;;;;5050212;28;20038;-65
2023/10/12 14:57:29;;;;;;;15.98;7.72;;;;;;;;;;5041394;28;20901;-66
2023/10/12 14:59:55;;;;;;;12.93;7.93;;;;;;;;;;5042526;28;20031;-67
2023/10/12 15:02:20;;;;;;;14.45;8.57;;;;;;;;;;5047368;28;21179;-67
2023/10/12 15:04:46;;;;;;;17.67;8.63;;;;;;;;;;5043565;28;20032;-67
2023/10/12 15:07:12;;;;;;;13.85;8.55;;;;;;;;;;5043083;28;20153;-67
2023/10/12 15:09:38;;;;;;;13.13;9.68;;;;;;;;;;5038787;28;20031;-67
2023/10/12 15:12:05;;;;;;;12.87;8.80;;;;;;;;;;5034923;28;20130;-67
2023/10/12 15:14:31;;;;;;;16.33;9.13;;;;;;;;;;5041186;28;20495;-67
2023/10/12 15:16:56;;;;;;;14.73;9.82;;;;;;;;;;5056972;28;20467;-67
2023/10/12 15:19:22;;;;;;;16.20;9.75;;;;;;;;;;5084788;28;20089;-67
2023/10/12 15:21:48;;;;;;;19.05;9.43;;;;;;;;;;5089743;28;20031;-67
2023/10/12 15:24:14;;;;;;;17.15;10.43;;;;;;;;;;5079859;28;20020;-66
2023/10/12 15:26:40;;;;;;;16.40;10.10;;;;;;;;;;5089889;28;20142;-67
2023/10/12 15:29:08;;;;;;;17.52;10.32;;;;;;;;;;5085012;28;20047;-64
2023/10/12 15:31:33;;;;;;;13.60;9.68;;;;;;;;;;5036013;28;20021;-66
2023/10/12 15:33:59;;;;;;;15.25;9.65;;;;;;;;;;5064972;28;20501;-66
2023/10/12 15:36:25;;;;;;;14.40;10.35;;;;;;;;;;5087549;28;20415;-67
2023/10/12 15:38:51;;;;;;;15.02;9.82;;;;;;;;;;5089173;28;20040;-67
2023/10/12 15:41:17;;;;;;;17.33;11.55;;;;;;;;;;5090588;28;20550;-67
2023/10/12 15:43:42;;;;;;;21.00;11.45;;;;;;;;;;5091030;28;20113;-67
2023/10/12 15:46:11;;;;;;;15.80;11.67;;;;;;;;;;5090970;28;20103;-67
2023/10/12 15:48:36;;;;;;;17.38;10.95;;;;;;;;;;5085199;28;20278;-67
2023/10/12 15:51:01;;;;;;;23.02;12.13;;;;;;;;;;5085708;28;20024;-67
2023/10/12 15:53:27;;;;;;;17.13;11.20;;;;;;;;;;5089724;28;20367;-67
2023/10/12 15:55:52;;;;;;;17.30;12.75;;;;;;;;;;5061322;28;20051;-67
2023/10/12 15:58:18;;;;;;;18.02;12.98;;;;;;;;;;5045185;28;20016;-67
2023/10/12 16:00:45;;;;;;;23.02;13.82;;;;;;;;;;5045028;28;20046;-67
2023/10/12 16:03:10;;;;;;;17.85;12.77;;;;;;;;;;5049047;28;20020;-68
2023/10/12 16:05:36;;;;;;;16.90;13.23;;;;;;;;;;5047996;28;20838;-67
2023/10/12 16:08:02;;;;;;;18.15;13.30;;;;;;;;;;5047607;28;20101;-68
2023/10/12 16:10:28;;;;;;;15.68;12.00;;;;;;;;;;5048008;28;20039;-68
2023/10/12 16:12:54;;;;;;;20.33;13.48;;;;;;;;;;5044970;28;20063;-68
2023/10/12 16:15:20;;;;;;;20.00;12.70;;;;;;;;;;5082876;28;20020;-68
2023/10/12 16:17:48;;;;;;;21.60;12.57;;;;;;;;;;5092649;28;20030;-68
2023/10/12 16:20:14;;;;;;;19.17;13.32;;;;;;;;;;5093851;28;20055;-68
2023/10/12 16:22:43;;;;;;;21.52;13.30;;;;;;;;;;5078166;28;20119;-68
2023/10/12 16:25:11;;;;;;;19.85;15.35;;;;;;;;;;5043409;28;20917;-68
2023/10/12 16:27:38;;;;;;;19.80;13.27;;;;;;;;;;5045510;28;20899;-68
2023/10/12 16:30:04;;;;;;;21.92;13.60;;;;;;;;;;5046607;28;20044;-67
2023/10/12 16:32:29;;;;;;;23.40;14.38;;;;;;;;;;5048631;28;20141;-68
2023/10/12 16:34:55;;;;;;;26.40;14.32;;;;;;;;;;5040070;28;20854;-68
2023/10/12 16:37:20;;;;;;;20.77;15.02;;;;;;;;;;5089271;28;20383;-68
2023/10/12 16:39:45;;;;;;;22.08;13.80;;;;;;;;;;5092910;28;20032;-68